createdAt,value
2018-12-06T00:01:46.639Z,8.33
2018-12-06T00:04:13.343Z,13.87
2018-12-06T00:06:40.028Z,7.20
2018-12-06T00:09:06.494Z,8.10
2018-12-06T00:11:33.278Z,9.73
2018-12-06T00:13:59.754Z,9.83
2018-12-06T00:16:26.234Z,9.13
2018-12-06T00:18:57.464Z,10.13
2018-12-06T00:21:24.167Z,12.13
2018-12-06T00:23:50.667Z,8.07
2018-12-06T00:26:17.350Z,8.90
2018-12-06T00:28:43.967Z,9.00
2018-12-06T00:31:10.560Z,9.77
2018-12-06T00:33:37.151Z,12.13
2018-12-06T00:36:03.913Z,6.67
2018-12-06T00:38:30.422Z,8.03
2018-12-06T00:40:56.907Z,10.30
2018-12-06T00:43:23.865Z,10.93
2018-12-06T00:45:50.376Z,11.40
2018-12-06T00:48:16.754Z,10.70
2018-12-06T00:50:43.395Z,7.37
2018-12-06T00:53:09.989Z,9.67
2018-12-06T00:55:36.470Z,11.13
2018-12-06T00:58:03.067Z,9.50
2018-12-06T01:00:29.762Z,8.50
2018-12-06T01:02:56.235Z,10.57
2018-12-06T01:05:22.814Z,10.27
2018-12-06T01:07:49.421Z,11.03
2018-12-06T01:10:16.015Z,11.13
2018-12-06T01:12:43.705Z,10.33
2018-12-06T01:15:11.255Z,10.57
2018-12-06T01:17:37.850Z,14.57
2018-12-06T01:20:04.435Z,10.93
2018-12-06T01:22:31.908Z,9.97
2018-12-06T01:24:58.511Z,12.70
2018-12-06T01:27:24.984Z,11.70
2018-12-06T01:29:51.576Z,9.57
2018-12-06T01:32:18.071Z,9.67
2018-12-06T01:34:44.662Z,10.70
2018-12-06T01:37:11.472Z,8.00
2018-12-06T01:39:37.995Z,11.60
2018-12-06T01:42:04.700Z,9.20
2018-12-06T01:44:31.449Z,10.43
2018-12-06T01:46:57.939Z,8.00
2018-12-06T01:49:24.449Z,9.00
2018-12-06T01:51:50.930Z,10.67
2018-12-06T01:54:17.346Z,14.60
2018-12-06T01:56:44.056Z,9.57
2018-12-06T01:59:10.855Z,11.37
2018-12-06T02:01:37.457Z,10.07
2018-12-06T02:04:04.249Z,12.07
2018-12-06T02:06:30.864Z,8.97
2018-12-06T02:08:57.576Z,10.80
2018-12-06T02:11:24.074Z,10.67
2018-12-06T02:13:50.663Z,10.70
2018-12-06T02:16:17.357Z,14.10
2018-12-06T02:18:43.846Z,9.97
2018-12-06T02:21:10.364Z,10.17
2018-12-06T02:23:36.832Z,8.93
2018-12-06T02:26:03.531Z,15.30
2018-12-06T02:28:30.130Z,17.83
2018-12-06T02:30:56.600Z,12.13
2018-12-06T02:33:22.964Z,16.47
2018-12-06T02:35:49.594Z,15.50
2018-12-06T02:38:16.296Z,14.33
2018-12-06T02:40:42.991Z,13.50
2018-12-06T02:43:09.683Z,15.63
2018-12-06T02:45:36.240Z,15.20
2018-12-06T02:48:02.852Z,17.87
2018-12-06T02:50:29.571Z,15.77
2018-12-06T02:52:56.036Z,14.63
2018-12-06T02:55:22.562Z,14.27
2018-12-06T02:57:49.149Z,14.07
2018-12-06T03:00:15.658Z,12.60
2018-12-06T03:02:42.137Z,19.07
2018-12-06T03:05:08.618Z,18.20
2018-12-06T03:07:35.091Z,15.67
2018-12-06T03:10:01.549Z,18.77
2018-12-06T03:12:28.038Z,16.07
2018-12-06T03:14:54.654Z,15.27
2018-12-06T03:17:21.273Z,19.83
2018-12-06T03:19:47.972Z,17.03
2018-12-06T03:22:14.561Z,17.43
2018-12-06T03:24:41.152Z,18.43
2018-12-06T03:27:07.734Z,18.47
2018-12-06T03:29:34.215Z,13.77
2018-12-06T03:32:00.705Z,13.70
2018-12-06T03:34:27.067Z,13.13
2018-12-06T03:36:53.558Z,14.27
2018-12-06T03:39:20.251Z,15.47
2018-12-06T03:41:46.858Z,18.67
2018-12-06T03:44:13.464Z,16.50
2018-12-06T03:46:40.060Z,16.43
2018-12-06T03:49:06.559Z,15.77
2018-12-06T03:51:33.159Z,20.50
2018-12-06T03:53:59.720Z,16.13
2018-12-06T03:56:26.233Z,19.63
2018-12-06T03:58:52.830Z,20.13
2018-12-06T04:01:19.218Z,21.80
2018-12-06T04:03:45.707Z,18.30
2018-12-06T04:06:12.298Z,16.87
2018-12-06T04:08:38.783Z,18.80
2018-12-06T04:11:05.358Z,20.57
2018-12-06T04:13:31.852Z,16.80
2018-12-06T04:15:58.329Z,20.33
2018-12-06T04:18:24.838Z,17.13
2018-12-06T04:20:51.423Z,22.33
2018-12-06T04:23:17.915Z,22.97
2018-12-06T04:25:44.500Z,19.60
2018-12-06T04:28:11.115Z,15.43
2018-12-06T04:30:37.812Z,18.73
2018-12-06T04:33:04.271Z,19.73
2018-12-06T04:35:31.055Z,18.87
2018-12-06T04:37:57.582Z,18.50
2018-12-06T04:40:24.173Z,27.10
2018-12-06T04:42:50.665Z,23.63
2018-12-06T04:45:17.259Z,21.90
2018-12-06T04:47:44.971Z,21.37
2018-12-06T04:50:11.460Z,18.67
2018-12-06T04:52:38.064Z,26.43
2018-12-06T04:55:04.526Z,27.67
2018-12-06T04:57:30.904Z,22.87
2018-12-06T04:59:57.503Z,19.37
2018-12-06T05:02:24.083Z,28.13
2018-12-06T05:04:50.578Z,22.67
2018-12-06T05:07:17.121Z,21.17
2018-12-06T05:09:43.619Z,21.83
2018-12-06T05:12:10.078Z,24.73
2018-12-06T05:14:36.678Z,24.10
2018-12-06T05:17:03.254Z,27.57
2018-12-06T05:19:29.850Z,25.70
2018-12-06T05:21:56.451Z,23.70
2018-12-06T05:24:22.943Z,23.17
2018-12-06T05:26:49.404Z,26.97
2018-12-06T05:29:15.902Z,28.50
2018-12-06T05:31:42.488Z,23.83
2018-12-06T05:34:08.978Z,25.07
2018-12-06T05:36:35.564Z,28.33
2018-12-06T05:39:03.854Z,30.88
2018-12-06T05:41:30.350Z,29.43
2018-12-06T05:43:56.866Z,31.60
2018-12-06T05:46:23.449Z,34.60
2018-12-06T05:48:50.067Z,27.23
2018-12-06T05:51:16.535Z,29.00
2018-12-06T05:53:42.999Z,31.53
2018-12-06T05:56:09.495Z,30.03
2018-12-06T05:58:36.076Z,26.50
2018-12-06T06:01:02.684Z,27.27
2018-12-06T06:03:29.170Z,28.27
2018-12-06T06:05:55.883Z,25.20
2018-12-06T06:08:22.407Z,23.93
2018-12-06T06:10:48.900Z,24.43
2018-12-06T06:13:15.599Z,26.73
2018-12-06T06:15:42.095Z,29.30
2018-12-06T06:18:08.708Z,24.80
2018-12-06T06:20:35.077Z,27.03
2018-12-06T06:23:01.664Z,30.53
2018-12-06T06:25:28.137Z,28.37
2018-12-06T06:27:54.826Z,27.70
2018-12-06T06:30:21.547Z,24.73
2018-12-06T06:32:48.359Z,28.63
2018-12-06T06:35:14.729Z,28.27
2018-12-06T06:37:41.319Z,24.20
2018-12-06T06:40:07.786Z,21.90
2018-12-06T06:42:34.250Z,22.47
2018-12-06T06:45:01.090Z,25.63
2018-12-06T06:47:28.613Z,31.73
2018-12-06T06:49:55.147Z,25.87
2018-12-06T06:52:21.767Z,24.03
2018-12-06T06:54:48.253Z,27.40
2018-12-06T06:57:14.718Z,25.63
2018-12-06T06:59:41.213Z,25.03
2018-12-06T07:02:07.696Z,24.57
2018-12-06T07:04:34.274Z,27.43
2018-12-06T07:07:01.000Z,25.80
2018-12-06T07:09:27.486Z,26.93
2018-12-06T07:11:54.083Z,28.47
2018-12-06T07:14:20.543Z,26.47
2018-12-06T07:16:47.237Z,25.50
2018-12-06T07:19:13.819Z,27.57
2018-12-06T07:21:40.427Z,23.77
2018-12-06T07:24:07.014Z,25.13
2018-12-06T07:26:33.667Z,25.57
2018-12-06T07:29:00.247Z,23.73
2018-12-06T07:31:26.726Z,29.37
2018-12-06T07:33:54.334Z,23.97
2018-12-06T07:36:20.915Z,25.73
2018-12-06T07:38:47.510Z,30.87
2018-12-06T07:41:14.195Z,21.57
2018-12-06T07:43:40.786Z,22.53
2018-12-06T07:46:08.634Z,21.23
2018-12-06T07:48:35.359Z,23.47
2018-12-06T07:51:01.963Z,24.13
2018-12-06T07:53:28.582Z,26.27
2018-12-06T07:55:55.177Z,25.60
2018-12-06T07:58:21.780Z,22.93
2018-12-06T08:00:48.370Z,25.20
2018-12-06T08:03:14.902Z,20.97
2018-12-06T08:05:41.397Z,27.03
2018-12-06T08:08:08.131Z,20.53
2018-12-06T08:10:34.727Z,24.37
2018-12-06T08:13:01.330Z,18.73
2018-12-06T08:15:27.913Z,23.93
2018-12-06T08:17:54.609Z,22.70
2018-12-06T08:20:21.199Z,28.10
2018-12-06T08:22:47.708Z,26.70
2018-12-06T08:25:14.290Z,25.50
2018-12-06T08:27:40.643Z,23.37
2018-12-06T08:30:07.278Z,23.27
2018-12-06T08:32:33.757Z,29.50
2018-12-06T08:35:00.356Z,20.27
2018-12-06T08:37:26.718Z,22.50
2018-12-06T08:39:53.232Z,21.43
2018-12-06T08:42:19.823Z,19.00
2018-12-06T08:44:46.305Z,19.33
2018-12-06T08:47:12.882Z,21.50
2018-12-06T08:49:39.486Z,20.73
2018-12-06T08:52:06.185Z,25.23
2018-12-06T08:54:32.687Z,21.03
2018-12-06T08:56:59.267Z,25.27
2018-12-06T08:59:25.628Z,19.93
2018-12-06T09:01:52.099Z,19.30
2018-12-06T09:04:18.590Z,21.53
2018-12-06T09:06:45.166Z,23.93
2018-12-06T09:09:11.539Z,21.93
2018-12-06T09:11:38.031Z,20.67
2018-12-06T09:14:04.626Z,22.10
2018-12-06T09:16:31.075Z,25.37
2018-12-06T09:18:57.689Z,25.47
2018-12-06T09:21:24.269Z,20.73
2018-12-06T09:23:50.964Z,24.93
2018-12-06T09:26:17.699Z,24.03
2018-12-06T09:28:44.279Z,23.20
2018-12-06T09:31:10.739Z,21.73
2018-12-06T09:33:39.141Z,22.90
2018-12-06T09:36:05.648Z,25.53
2018-12-06T09:38:32.010Z,24.83
2018-12-06T09:40:58.503Z,24.37
2018-12-06T09:43:25.084Z,22.60
2018-12-06T09:45:51.687Z,21.87
2018-12-06T09:48:18.295Z,19.40
2018-12-06T09:50:44.899Z,21.13
2018-12-06T09:53:11.378Z,22.00
2018-12-06T09:55:37.980Z,21.13
2018-12-06T09:58:04.467Z,24.47
2018-12-06T10:00:31.087Z,21.23
2018-12-06T10:02:57.419Z,21.43
2018-12-06T10:05:24.014Z,20.23
2018-12-06T10:07:50.493Z,20.13
2018-12-06T10:10:17.194Z,20.60
2018-12-06T10:12:43.788Z,20.23
2018-12-06T10:15:10.280Z,20.57
2018-12-06T10:17:36.882Z,19.23
2018-12-06T10:20:04.109Z,21.53
2018-12-06T10:22:30.594Z,21.77
2018-12-06T10:24:57.066Z,19.37
2018-12-06T10:27:23.668Z,18.43
2018-12-06T10:29:50.259Z,21.10
2018-12-06T10:32:18.475Z,20.20
2018-12-06T10:34:45.467Z,23.03
2018-12-06T10:37:16.420Z,20.47
2018-12-06T10:39:43.107Z,17.37
2018-12-06T10:42:09.611Z,22.43
2018-12-06T10:44:36.206Z,20.80
2018-12-06T10:47:02.810Z,20.53
2018-12-06T10:49:29.419Z,19.80
2018-12-06T10:51:55.896Z,22.53
2018-12-06T10:54:22.479Z,26.00
2018-12-06T10:56:49.090Z,18.40
2018-12-06T10:59:15.582Z,17.80
2018-12-06T11:01:44.397Z,20.17
2018-12-06T11:04:10.980Z,19.97
2018-12-06T11:06:37.395Z,21.90
2018-12-06T11:09:05.411Z,23.63
2018-12-06T11:11:32.117Z,23.10
2018-12-06T11:13:58.822Z,21.67
2018-12-06T11:16:25.516Z,21.23
2018-12-06T11:18:51.979Z,22.57
2018-12-06T11:21:18.580Z,20.73
2018-12-06T11:23:45.111Z,18.53
2018-12-06T11:26:11.623Z,20.80
2018-12-06T11:28:38.215Z,20.17
2018-12-06T11:31:04.591Z,18.10
2018-12-06T11:33:31.090Z,17.23
2018-12-06T11:35:57.687Z,18.10
2018-12-06T11:38:24.326Z,18.10
2018-12-06T11:40:50.832Z,17.80
2018-12-06T11:43:17.254Z,20.00
2018-12-06T11:45:43.755Z,18.53
2018-12-06T11:48:10.293Z,17.33
2018-12-06T11:50:36.787Z,17.47
2018-12-06T11:53:03.388Z,20.57
2018-12-06T11:55:29.956Z,19.10
2018-12-06T11:57:56.671Z,17.37
2018-12-06T12:00:23.267Z,19.37
2018-12-06T12:02:49.769Z,19.13
2018-12-06T12:05:16.253Z,23.23
2018-12-06T12:07:42.757Z,20.40
2018-12-06T12:10:09.250Z,20.20
2018-12-06T12:12:35.746Z,26.33
2018-12-06T12:15:02.623Z,24.00
2018-12-06T12:17:29.124Z,22.37
2018-12-06T12:19:55.728Z,20.00
2018-12-06T12:22:22.310Z,29.20
2018-12-06T12:24:48.820Z,33.47
2018-12-06T12:27:15.415Z,22.23
2018-12-06T12:29:41.909Z,20.17
2018-12-06T12:32:08.623Z,21.53
2018-12-06T12:34:35.115Z,20.90
2018-12-06T12:37:01.811Z,20.13
2018-12-06T12:39:28.180Z,20.03
2018-12-06T12:41:57.843Z,17.87
2018-12-06T12:44:24.446Z,19.60
2018-12-06T12:46:51.027Z,17.30
2018-12-06T12:49:17.398Z,16.93
2018-12-06T12:51:43.898Z,15.93
2018-12-06T12:54:10.392Z,15.07
2018-12-06T12:56:36.859Z,16.40
2018-12-06T12:59:03.226Z,18.50
2018-12-06T13:01:29.707Z,16.40
2018-12-06T13:03:56.307Z,15.90
2018-12-06T13:06:22.911Z,16.10
2018-12-06T13:08:49.416Z,14.97
2018-12-06T13:11:15.906Z,15.00
2018-12-06T13:13:42.402Z,14.03
2018-12-06T13:16:08.890Z,16.13
2018-12-06T13:18:35.388Z,15.03
2018-12-06T13:21:02.000Z,15.63
2018-12-06T13:23:28.369Z,14.50
2018-12-06T13:25:54.858Z,15.70
2018-12-06T13:28:21.350Z,14.03
2018-12-06T13:30:47.839Z,10.97
2018-12-06T13:33:14.531Z,11.20
2018-12-06T13:35:40.994Z,14.60
2018-12-06T13:38:07.475Z,13.23
2018-12-06T13:40:33.967Z,11.00
2018-12-06T13:43:00.468Z,12.83
2018-12-06T13:45:26.975Z,15.67
2018-12-06T13:47:53.691Z,14.47
2018-12-06T13:50:20.187Z,13.13
2018-12-06T13:52:46.555Z,12.53
2018-12-06T13:55:13.023Z,12.73
2018-12-06T13:57:39.847Z,11.00
2018-12-06T14:00:06.684Z,9.80
2018-12-06T14:02:33.234Z,10.93
2018-12-06T14:04:59.954Z,12.80
2018-12-06T14:07:26.431Z,10.93
2018-12-06T14:09:53.028Z,11.40
2018-12-06T14:12:19.750Z,14.10
2018-12-06T14:14:46.231Z,12.27
2018-12-06T14:17:12.777Z,12.20
2018-12-06T14:19:39.323Z,12.43
2018-12-06T14:22:06.055Z,12.57
2018-12-06T14:24:32.528Z,10.67
2018-12-06T14:26:59.135Z,12.53
2018-12-06T14:29:25.627Z,10.90
2018-12-06T14:31:52.231Z,11.63
2018-12-06T14:34:18.579Z,11.50
2018-12-06T14:36:45.067Z,12.80
2018-12-06T14:39:11.551Z,12.27
2018-12-06T14:41:38.164Z,12.37
2018-12-06T14:44:04.783Z,11.83
2018-12-06T14:46:31.299Z,11.47
2018-12-06T14:48:57.924Z,9.43
2018-12-06T14:51:24.517Z,8.83
2018-12-06T14:53:51.102Z,8.90
2018-12-06T14:56:17.730Z,8.73
2018-12-06T14:58:44.222Z,7.60
2018-12-06T15:01:10.948Z,9.90
2018-12-06T15:03:37.603Z,11.10
2018-12-06T15:06:04.221Z,9.93
2018-12-06T15:08:31.287Z,7.90
2018-12-06T15:10:57.807Z,10.07
2018-12-06T15:13:24.339Z,9.33
2018-12-06T15:15:50.935Z,10.30
2018-12-06T15:18:17.434Z,10.03
2018-12-06T15:20:44.015Z,9.77
2018-12-06T15:23:10.476Z,7.77
2018-12-06T15:25:41.812Z,10.13
2018-12-06T15:28:05.493Z,9.67
2018-12-06T15:30:31.993Z,10.37
2018-12-06T15:32:58.487Z,11.80
2018-12-06T15:35:24.842Z,10.67
2018-12-06T15:37:51.333Z,12.43
2018-12-06T15:40:17.911Z,13.37
2018-12-06T15:42:44.411Z,12.97
2018-12-06T15:45:10.885Z,13.83
2018-12-06T15:47:37.391Z,14.97
2018-12-06T15:50:03.991Z,10.80
2018-12-06T15:52:30.714Z,9.83
2018-12-06T15:55:00.083Z,8.07
2018-12-06T15:57:26.566Z,7.97
2018-12-06T15:59:53.075Z,10.17
2018-12-06T16:02:19.676Z,7.67
2018-12-06T16:04:46.267Z,8.10
2018-12-06T16:07:13.975Z,8.90
2018-12-06T16:09:40.568Z,9.30
2018-12-06T16:12:07.259Z,9.37
2018-12-06T16:14:33.772Z,9.53
2018-12-06T16:17:00.260Z,8.53
2018-12-06T16:19:26.845Z,9.20
2018-12-06T16:21:53.326Z,12.70
2018-12-06T16:24:19.951Z,9.87
2018-12-06T16:26:46.457Z,13.03
2018-12-06T16:29:12.979Z,14.57
2018-12-06T16:31:39.461Z,16.03
2018-12-06T16:34:06.191Z,14.53
2018-12-06T16:36:33.668Z,12.83
2018-12-06T16:39:00.183Z,10.03
2018-12-06T16:41:26.550Z,11.70
2018-12-06T16:43:53.059Z,11.37
2018-12-06T16:46:21.107Z,13.70
2018-12-06T16:49:18.975Z,20.83
2018-12-06T16:51:45.463Z,18.97
2018-12-06T16:54:11.931Z,15.47
2018-12-06T16:56:38.529Z,18.60
2018-12-06T16:59:05.107Z,21.70
2018-12-06T17:01:31.786Z,20.43
2018-12-06T17:03:58.476Z,22.07
2018-12-06T17:06:24.984Z,24.13
2018-12-06T17:08:54.510Z,20.70
2018-12-06T17:11:21.004Z,16.37
2018-12-06T17:13:47.543Z,21.93
2018-12-06T17:16:14.055Z,29.80
2018-12-06T17:18:40.540Z,22.93
2018-12-06T17:21:07.043Z,20.40
2018-12-06T17:23:34.633Z,13.83
2018-12-06T17:26:01.341Z,10.67
2018-12-06T17:28:27.934Z,10.37
2018-12-06T17:30:54.532Z,10.10
2018-12-06T17:33:21.218Z,9.50
2018-12-06T17:35:47.783Z,13.60
2018-12-06T17:38:14.275Z,13.17
2018-12-06T17:40:40.777Z,12.67
2018-12-06T17:43:07.369Z,11.10
2018-12-06T17:45:34.084Z,29.07
2018-12-06T17:48:00.599Z,18.50
2018-12-06T17:50:27.075Z,25.90
2018-12-06T17:52:53.571Z,31.97
2018-12-06T17:55:19.920Z,18.33
2018-12-06T17:57:46.390Z,17.10
2018-12-06T18:00:12.975Z,33.63
2018-12-06T18:02:39.455Z,26.40
2018-12-06T18:05:08.850Z,18.07
2018-12-06T18:07:35.343Z,11.27
2018-12-06T18:10:02.702Z,15.50
2018-12-06T18:12:29.302Z,15.77
2018-12-06T18:14:55.660Z,14.57
2018-12-06T18:17:22.139Z,15.33
2018-12-06T18:19:48.963Z,12.10
2018-12-06T18:22:15.479Z,14.20
2018-12-06T18:24:41.954Z,12.93
2018-12-06T18:27:08.648Z,10.73
2018-12-06T18:29:35.248Z,10.50
2018-12-06T18:32:01.756Z,12.67
2018-12-06T18:34:28.387Z,13.13
2018-12-06T18:36:54.899Z,12.50
2018-12-06T18:39:21.271Z,12.67
2018-12-06T18:41:47.755Z,11.70
2018-12-06T18:44:14.407Z,13.67
2018-12-06T18:46:41.386Z,13.20
2018-12-06T18:49:07.923Z,11.73
2018-12-06T18:51:34.647Z,22.07
2018-12-06T18:54:01.262Z,21.17
2018-12-06T18:56:27.974Z,21.17
2018-12-06T18:58:54.503Z,16.97
2018-12-06T19:01:20.852Z,19.43
2018-12-06T19:03:47.318Z,17.57
2018-12-06T19:06:13.823Z,15.77
2018-12-06T19:08:40.430Z,18.03
2018-12-06T19:11:07.023Z,17.77
2018-12-06T19:13:33.765Z,20.00
2018-12-06T19:16:00.137Z,21.23
2018-12-06T19:18:26.659Z,19.27
2018-12-06T19:20:53.278Z,22.37
2018-12-06T19:23:19.742Z,18.13
2018-12-06T19:25:46.247Z,19.93
2018-12-06T19:28:12.775Z,22.63
2018-12-06T19:30:39.293Z,19.20
2018-12-06T19:33:05.823Z,18.87
2018-12-06T19:35:31.799Z,17.77
2018-12-06T19:37:58.401Z,18.07
2018-12-06T19:40:25.111Z,15.70
2018-12-06T19:42:51.819Z,14.90
2018-12-06T19:45:18.320Z,20.37
2018-12-06T19:47:44.903Z,17.07
2018-12-06T19:50:11.568Z,15.30
2018-12-06T19:52:38.081Z,17.77
2018-12-06T19:55:04.800Z,21.03
2018-12-06T19:57:31.298Z,18.53
2018-12-06T19:59:57.790Z,16.47
2018-12-06T20:02:24.295Z,15.83
2018-12-06T20:04:50.979Z,14.80
2018-12-06T20:07:17.463Z,19.30
2018-12-06T20:09:43.815Z,14.93
2018-12-06T20:12:12.066Z,14.97
2018-12-06T20:14:39.047Z,14.70
2018-12-06T20:17:05.763Z,15.60
2018-12-06T20:19:32.376Z,15.80
2018-12-06T20:21:58.911Z,15.40
2018-12-06T20:24:25.421Z,15.17
2018-12-06T20:26:52.209Z,12.37
2018-12-06T20:29:18.729Z,15.80
2018-12-06T20:31:45.450Z,14.13
2018-12-06T20:34:11.934Z,19.50
2018-12-06T20:36:38.449Z,16.13
2018-12-06T20:39:05.477Z,15.50
2018-12-06T20:41:31.973Z,13.73
2018-12-06T20:43:58.465Z,13.97
2018-12-06T20:46:24.827Z,13.53
2018-12-06T20:48:51.348Z,11.83
2018-12-06T20:51:17.873Z,12.70
2018-12-06T20:53:44.460Z,12.27
2018-12-06T20:56:10.966Z,11.63
2018-12-06T20:58:37.383Z,13.50
2018-12-06T21:01:03.872Z,13.03
2018-12-06T21:03:30.374Z,11.07
2018-12-06T21:05:57.086Z,16.67
2018-12-06T21:08:23.722Z,11.57
2018-12-06T21:10:50.195Z,12.37
2018-12-06T21:13:16.571Z,12.13
2018-12-06T21:15:43.054Z,13.60
2018-12-06T21:18:09.554Z,12.50
2018-12-06T21:20:36.043Z,13.77
2018-12-06T21:23:02.515Z,13.23
2018-12-06T21:25:29.231Z,13.03
2018-12-06T21:27:55.727Z,9.77
2018-12-06T21:30:22.387Z,10.83
2018-12-06T21:32:49.014Z,14.30
2018-12-06T21:35:15.386Z,11.97
2018-12-06T21:37:41.903Z,8.43
2018-12-06T21:40:08.379Z,11.47
2018-12-06T21:42:35.124Z,11.67
2018-12-06T21:45:01.748Z,9.40
2018-12-06T21:47:28.255Z,11.23
2018-12-06T21:49:54.851Z,11.20
2018-12-06T21:52:21.438Z,9.43
2018-12-06T21:54:48.045Z,12.13
2018-12-06T21:57:14.650Z,11.17
2018-12-06T21:59:41.173Z,10.17
2018-12-06T22:02:09.700Z,11.37
2018-12-06T22:04:36.068Z,10.70
2018-12-06T22:07:02.530Z,9.27
2018-12-06T22:09:29.138Z,17.10
2018-12-06T22:11:55.826Z,9.60
2018-12-06T22:14:22.516Z,9.97
2018-12-06T22:16:49.104Z,9.37
2018-12-06T22:19:15.712Z,7.37
2018-12-06T22:21:42.130Z,9.70
2018-12-06T22:24:08.623Z,8.70
2018-12-06T22:26:35.204Z,9.27
2018-12-06T22:29:01.798Z,9.43
2018-12-06T22:31:28.379Z,9.57
2018-12-06T22:33:54.739Z,8.90
2018-12-06T22:36:21.327Z,9.00
2018-12-06T22:38:47.826Z,7.57
2018-12-06T22:41:14.469Z,10.40
2018-12-06T22:43:41.083Z,8.53
2018-12-06T22:46:07.562Z,8.43
2018-12-06T22:48:34.191Z,9.07
2018-12-06T22:51:00.791Z,8.67
2018-12-06T22:53:27.293Z,7.43
2018-12-06T22:55:53.891Z,8.53
2018-12-06T22:58:20.357Z,7.43
2018-12-06T23:00:48.866Z,6.67
2018-12-06T23:03:15.464Z,7.07
2018-12-06T23:05:41.940Z,6.37
2018-12-06T23:08:08.295Z,5.63
2018-12-06T23:10:34.976Z,4.80
2018-12-06T23:13:01.558Z,6.63
2018-12-06T23:15:28.004Z,6.10
2018-12-06T23:17:54.506Z,4.93
2018-12-06T23:20:21.223Z,4.50
2018-12-06T23:22:47.916Z,4.93
2018-12-06T23:25:14.539Z,5.43
2018-12-06T23:27:41.139Z,5.90
2018-12-06T23:30:07.617Z,5.47
2018-12-06T23:32:34.209Z,3.60
2018-12-06T23:35:00.791Z,4.30
2018-12-06T23:37:27.161Z,4.57
2018-12-06T23:39:53.763Z,5.50
2018-12-06T23:42:20.260Z,4.30
2018-12-06T23:44:46.899Z,5.93
2018-12-06T23:47:13.403Z,4.73
2018-12-06T23:49:39.915Z,6.17
2018-12-06T23:52:06.284Z,5.93
2018-12-06T23:54:32.640Z,8.07
2018-12-06T23:56:59.236Z,4.93
2018-12-06T23:59:25.900Z,5.87
